Bologna, Italy
Current Conditions -  °F | °C
As of 10:20 PM on Friday 24 Oct 2014 (Local Time) from LIPE Reporting Station
Clear Clear  
Wind Chill: 54°   Ceiling: Unl
Heat Index: 54°   Visibility: 6mi
Dew Point: 46°   Wind: 10mph
Humidity: 77%   Direction: 130°SE
Pressure: 30"   Gusts: NA
Location:  44.49°N, 11.35°E
Report Text: LIPE 242020Z 13009KT CAVOK 12/08 Q1016
Loading
Personal Weather Stations






























Interactive Weather Map
Tropical Storm Tracking
New forecast layout! Learn more

10-Day Weather Forecast

Advertisements
Track Severe Weather on mobile